sensor_id;sensor_type;location;lat;lon;timestamp;P1;durP1;ratioP1;P2;durP2;ratioP2
36423;SDS011;22458;45.328;9.514;2022-08-23T00:02:04;5.22;;;4.60;;
36423;SDS011;22458;45.328;9.514;2022-08-23T00:04:34;6.57;;;5.30;;
36423;SDS011;22458;45.328;9.514;2022-08-23T00:07:05;6.47;;;5.05;;
36423;SDS011;22458;45.328;9.514;2022-08-23T00:09:32;5.05;;;4.55;;
36423;SDS011;22458;45.328;9.514;2022-08-23T00:12:03;9.63;;;5.57;;
36423;SDS011;22458;45.328;9.514;2022-08-23T00:14:37;7.25;;;4.80;;
36423;SDS011;22458;45.328;9.514;2022-08-23T00:17:06;5.53;;;5.03;;
36423;SDS011;22458;45.328;9.514;2022-08-23T00:19:33;4.80;;;4.40;;
36423;SDS011;22458;45.328;9.514;2022-08-23T00:22:00;6.10;;;4.80;;
36423;SDS011;22458;45.328;9.514;2022-08-23T00:24:26;5.35;;;4.72;;
36423;SDS011;22458;45.328;9.514;2022-08-23T00:29:18;5.10;;;4.07;;
36423;SDS011;22458;45.328;9.514;2022-08-23T00:31:44;5.70;;;4.57;;
36423;SDS011;22458;45.328;9.514;2022-08-23T00:34:10;5.90;;;4.75;;
36423;SDS011;22458;45.328;9.514;2022-08-23T00:36:36;5.05;;;4.30;;
36423;SDS011;22458;45.328;9.514;2022-08-23T00:39:03;4.80;;;4.30;;
36423;SDS011;22458;45.328;9.514;2022-08-23T00:41:29;8.48;;;4.45;;
36423;SDS011;22458;45.328;9.514;2022-08-23T00:43:56;4.97;;;4.47;;
36423;SDS011;22458;45.328;9.514;2022-08-23T00:46:47;6.40;;;4.75;;
36423;SDS011;22458;45.328;9.514;2022-08-23T00:49:29;5.18;;;4.05;;
36423;SDS011;22458;45.328;9.514;2022-08-23T00:54:28;6.53;;;4.82;;
36423;SDS011;22458;45.328;9.514;2022-08-23T00:56:55;8.13;;;4.38;;
36423;SDS011;22458;45.328;9.514;2022-08-23T01:01:49;5.75;;;4.15;;
36423;SDS011;22458;45.328;9.514;2022-08-23T01:04:16;6.03;;;4.63;;
36423;SDS011;22458;45.328;9.514;2022-08-23T01:07:00;5.05;;;4.50;;
36423;SDS011;22458;45.328;9.514;2022-08-23T01:09:44;7.03;;;4.95;;
36423;SDS011;22458;45.328;9.514;2022-08-23T01:12:20;9.40;;;4.50;;
36423;SDS011;22458;45.328;9.514;2022-08-23T01:20:47;4.65;;;4.10;;
36423;SDS011;22458;45.328;9.514;2022-08-23T01:23:45;8.05;;;5.07;;
36423;SDS011;22458;45.328;9.514;2022-08-23T01:26:23;6.65;;;5.95;;
36423;SDS011;22458;45.328;9.514;2022-08-23T01:28:51;7.13;;;5.07;;
36423;SDS011;22458;45.328;9.514;2022-08-23T01:31:19;6.38;;;4.70;;
36423;SDS011;22458;45.328;9.514;2022-08-23T01:33:49;6.75;;;5.30;;
36423;SDS011;22458;45.328;9.514;2022-08-23T01:36:19;5.55;;;4.88;;
36423;SDS011;22458;45.328;9.514;2022-08-23T01:38:48;5.63;;;4.88;;
36423;SDS011;22458;45.328;9.514;2022-08-23T01:41:14;6.20;;;4.78;;
36423;SDS011;22458;45.328;9.514;2022-08-23T01:43:39;5.32;;;4.82;;
36423;SDS011;22458;45.328;9.514;2022-08-23T01:46:07;5.70;;;5.15;;
36423;SDS011;22458;45.328;9.514;2022-08-23T01:48:36;6.78;;;5.28;;
36423;SDS011;22458;45.328;9.514;2022-08-23T01:51:02;6.28;;;5.10;;
36423;SDS011;22458;45.328;9.514;2022-08-23T01:53:29;6.45;;;5.82;;
36423;SDS011;22458;45.328;9.514;2022-08-23T01:55:55;5.97;;;5.30;;
36423;SDS011;22458;45.328;9.514;2022-08-23T01:58:22;5.63;;;5.13;;
36423;SDS011;22458;45.328;9.514;2022-08-23T02:00:49;7.03;;;4.80;;
36423;SDS011;22458;45.328;9.514;2022-08-23T02:03:16;8.10;;;5.00;;
36423;SDS011;22458;45.328;9.514;2022-08-23T02:05:42;5.57;;;4.95;;
36423;SDS011;22458;45.328;9.514;2022-08-23T02:08:10;5.57;;;4.85;;
36423;SDS011;22458;45.328;9.514;2022-08-23T02:10:56;5.93;;;5.32;;
36423;SDS011;22458;45.328;9.514;2022-08-23T02:13:24;7.75;;;5.07;;
36423;SDS011;22458;45.328;9.514;2022-08-23T02:15:50;5.90;;;5.30;;
36423;SDS011;22458;45.328;9.514;2022-08-23T02:18:19;6.03;;;5.40;;
36423;SDS011;22458;45.328;9.514;2022-08-23T02:20:47;5.85;;;5.25;;
36423;SDS011;22458;45.328;9.514;2022-08-23T02:23:15;6.18;;;5.57;;
36423;SDS011;22458;45.328;9.514;2022-08-23T02:25:41;5.18;;;4.70;;
36423;SDS011;22458;45.328;9.514;2022-08-23T02:28:08;5.85;;;4.97;;
36423;SDS011;22458;45.328;9.514;2022-08-23T02:30:34;5.82;;;5.28;;
36423;SDS011;22458;45.328;9.514;2022-08-23T02:33:00;7.32;;;5.40;;
36423;SDS011;22458;45.328;9.514;2022-08-23T02:35:27;6.85;;;5.30;;
36423;SDS011;22458;45.328;9.514;2022-08-23T02:37:54;6.05;;;5.18;;
36423;SDS011;22458;45.328;9.514;2022-08-23T02:40:20;6.47;;;4.75;;
36423;SDS011;22458;45.328;9.514;2022-08-23T02:42:46;6.30;;;4.95;;
36423;SDS011;22458;45.328;9.514;2022-08-23T02:45:14;6.60;;;5.95;;
36423;SDS011;22458;45.328;9.514;2022-08-23T02:47:45;7.18;;;5.75;;
36423;SDS011;22458;45.328;9.514;2022-08-23T02:50:18;6.72;;;5.93;;
36423;SDS011;22458;45.328;9.514;2022-08-23T02:52:45;6.22;;;5.63;;
36423;SDS011;22458;45.328;9.514;2022-08-23T02:55:12;5.78;;;5.10;;
36423;SDS011;22458;45.328;9.514;2022-08-23T02:57:38;7.40;;;5.75;;
36423;SDS011;22458;45.328;9.514;2022-08-23T03:00:06;7.10;;;5.68;;
36423;SDS011;22458;45.328;9.514;2022-08-23T03:02:35;6.38;;;5.78;;
36423;SDS011;22458;45.328;9.514;2022-08-23T03:05:02;6.95;;;6.15;;
36423;SDS011;22458;45.328;9.514;2022-08-23T03:07:29;6.65;;;5.90;;
36423;SDS011;22458;45.328;9.514;2022-08-23T03:09:55;7.38;;;5.78;;
36423;SDS011;22458;45.328;9.514;2022-08-23T03:12:21;6.10;;;5.30;;
36423;SDS011;22458;45.328;9.514;2022-08-23T03:14:51;8.80;;;5.72;;
36423;SDS011;22458;45.328;9.514;2022-08-23T03:17:18;10.48;;;7.03;;
36423;SDS011;22458;45.328;9.514;2022-08-23T03:19:44;8.32;;;6.22;;
36423;SDS011;22458;45.328;9.514;2022-08-23T03:22:10;9.85;;;6.75;;
36423;SDS011;22458;45.328;9.514;2022-08-23T03:24:36;7.90;;;6.15;;
36423;SDS011;22458;45.328;9.514;2022-08-23T03:27:03;6.72;;;5.93;;
36423;SDS011;22458;45.328;9.514;2022-08-23T03:29:30;10.75;;;6.53;;
36423;SDS011;22458;45.328;9.514;2022-08-23T03:32:02;7.07;;;5.97;;
36423;SDS011;22458;45.328;9.514;2022-08-23T03:34:33;8.05;;;5.95;;
36423;SDS011;22458;45.328;9.514;2022-08-23T03:36:59;6.57;;;5.88;;
36423;SDS011;22458;45.328;9.514;2022-08-23T03:39:25;6.82;;;5.60;;
36423;SDS011;22458;45.328;9.514;2022-08-23T03:41:53;5.65;;;5.10;;
36423;SDS011;22458;45.328;9.514;2022-08-23T03:44:19;6.70;;;5.97;;
36423;SDS011;22458;45.328;9.514;2022-08-23T03:46:46;6.40;;;5.80;;
36423;SDS011;22458;45.328;9.514;2022-08-23T03:49:11;8.98;;;6.75;;
36423;SDS011;22458;45.328;9.514;2022-08-23T03:51:45;9.15;;;6.28;;
36423;SDS011;22458;45.328;9.514;2022-08-23T03:54:11;7.25;;;5.90;;
36423;SDS011;22458;45.328;9.514;2022-08-23T03:56:38;9.45;;;6.63;;
36423;SDS011;22458;45.328;9.514;2022-08-23T03:59:13;6.53;;;5.93;;
36423;SDS011;22458;45.328;9.514;2022-08-23T04:01:39;6.80;;;5.82;;
36423;SDS011;22458;45.328;9.514;2022-08-23T04:04:05;6.90;;;6.20;;
36423;SDS011;22458;45.328;9.514;2022-08-23T04:06:35;7.55;;;6.57;;
36423;SDS011;22458;45.328;9.514;2022-08-23T04:09:01;6.95;;;6.05;;
36423;SDS011;22458;45.328;9.514;2022-08-23T04:11:28;6.78;;;6.18;;
36423;SDS011;22458;45.328;9.514;2022-08-23T04:13:59;10.13;;;6.68;;
36423;SDS011;22458;45.328;9.514;2022-08-23T04:16:25;7.10;;;6.30;;
36423;SDS011;22458;45.328;9.514;2022-08-23T04:18:53;7.45;;;6.63;;
36423;SDS011;22458;45.328;9.514;2022-08-23T04:21:20;8.45;;;6.63;;
36423;SDS011;22458;45.328;9.514;2022-08-23T04:23:47;7.25;;;6.57;;
36423;SDS011;22458;45.328;9.514;2022-08-23T04:26:14;7.35;;;5.97;;
36423;SDS011;22458;45.328;9.514;2022-08-23T04:28:41;8.18;;;6.18;;
36423;SDS011;22458;45.328;9.514;2022-08-23T04:31:07;9.05;;;6.75;;
36423;SDS011;22458;45.328;9.514;2022-08-23T04:33:35;9.43;;;5.90;;
36423;SDS011;22458;45.328;9.514;2022-08-23T04:36:01;7.20;;;6.50;;
36423;SDS011;22458;45.328;9.514;2022-08-23T04:38:28;8.50;;;6.53;;
36423;SDS011;22458;45.328;9.514;2022-08-23T04:40:59;7.55;;;6.50;;
36423;SDS011;22458;45.328;9.514;2022-08-23T04:43:45;7.68;;;6.80;;
36423;SDS011;22458;45.328;9.514;2022-08-23T04:46:12;7.57;;;6.53;;
36423;SDS011;22458;45.328;9.514;2022-08-23T04:48:43;8.23;;;6.80;;
36423;SDS011;22458;45.328;9.514;2022-08-23T04:51:11;7.78;;;6.63;;
36423;SDS011;22458;45.328;9.514;2022-08-23T04:53:37;7.47;;;6.53;;
36423;SDS011;22458;45.328;9.514;2022-08-23T04:56:36;8.93;;;6.35;;
36423;SDS011;22458;45.328;9.514;2022-08-23T04:59:03;7.55;;;6.25;;
36423;SDS011;22458;45.328;9.514;2022-08-23T05:01:30;7.75;;;6.35;;
36423;SDS011;22458;45.328;9.514;2022-08-23T05:03:58;7.88;;;6.32;;
36423;SDS011;22458;45.328;9.514;2022-08-23T05:06:26;9.30;;;6.60;;
36423;SDS011;22458;45.328;9.514;2022-08-23T05:08:53;6.80;;;6.07;;
36423;SDS011;22458;45.328;9.514;2022-08-23T05:11:19;7.65;;;5.70;;
36423;SDS011;22458;45.328;9.514;2022-08-23T05:13:46;8.48;;;5.93;;
36423;SDS011;22458;45.328;9.514;2022-08-23T05:16:12;7.60;;;6.82;;
36423;SDS011;22458;45.328;9.514;2022-08-23T05:18:46;7.00;;;6.30;;
36423;SDS011;22458;45.328;9.514;2022-08-23T05:21:15;7.05;;;6.32;;
36423;SDS011;22458;45.328;9.514;2022-08-23T05:23:44;7.45;;;5.70;;
36423;SDS011;22458;45.328;9.514;2022-08-23T05:26:16;6.63;;;5.80;;
36423;SDS011;22458;45.328;9.514;2022-08-23T05:28:43;6.75;;;5.90;;
36423;SDS011;22458;45.328;9.514;2022-08-23T05:31:15;6.28;;;5.45;;
36423;SDS011;22458;45.328;9.514;2022-08-23T05:33:48;6.25;;;5.65;;
36423;SDS011;22458;45.328;9.514;2022-08-23T05:36:20;7.30;;;6.20;;
36423;SDS011;22458;45.328;9.514;2022-08-23T05:38:47;6.55;;;5.72;;
36423;SDS011;22458;45.328;9.514;2022-08-23T05:41:14;6.50;;;5.40;;
36423;SDS011;22458;45.328;9.514;2022-08-23T05:43:41;7.10;;;6.40;;
36423;SDS011;22458;45.328;9.514;2022-08-23T05:46:14;8.15;;;6.10;;
36423;SDS011;22458;45.328;9.514;2022-08-23T05:48:48;6.03;;;5.32;;
36423;SDS011;22458;45.328;9.514;2022-08-23T05:51:19;10.15;;;5.75;;
36423;SDS011;22458;45.328;9.514;2022-08-23T05:53:47;9.70;;;6.18;;
36423;SDS011;22458;45.328;9.514;2022-08-23T05:56:31;6.93;;;6.22;;
36423;SDS011;22458;45.328;9.514;2022-08-23T05:59:04;6.30;;;5.45;;
36423;SDS011;22458;45.328;9.514;2022-08-23T06:01:32;6.63;;;5.90;;
36423;SDS011;22458;45.328;9.514;2022-08-23T06:04:06;8.77;;;6.03;;
36423;SDS011;22458;45.328;9.514;2022-08-23T06:06:38;6.05;;;5.45;;
36423;SDS011;22458;45.328;9.514;2022-08-23T06:09:06;7.80;;;6.10;;
36423;SDS011;22458;45.328;9.514;2022-08-23T06:11:35;6.38;;;5.75;;
36423;SDS011;22458;45.328;9.514;2022-08-23T06:14:04;6.60;;;5.78;;
36423;SDS011;22458;45.328;9.514;2022-08-23T06:16:33;8.57;;;5.55;;
36423;SDS011;22458;45.328;9.514;2022-08-23T06:19:02;7.60;;;6.38;;
36423;SDS011;22458;45.328;9.514;2022-08-23T06:21:47;7.65;;;6.22;;
36423;SDS011;22458;45.328;9.514;2022-08-23T06:24:21;7.07;;;5.80;;
36423;SDS011;22458;45.328;9.514;2022-08-23T06:26:58;6.55;;;5.28;;
36423;SDS011;22458;45.328;9.514;2022-08-23T06:29:23;7.28;;;5.45;;
36423;SDS011;22458;45.328;9.514;2022-08-23T06:32:09;6.18;;;4.82;;
36423;SDS011;22458;45.328;9.514;2022-08-23T06:34:42;6.40;;;5.13;;
36423;SDS011;22458;45.328;9.514;2022-08-23T06:37:31;4.55;;;4.15;;
36423;SDS011;22458;45.328;9.514;2022-08-23T06:40:15;4.80;;;4.30;;
36423;SDS011;22458;45.328;9.514;2022-08-23T06:43:04;7.15;;;3.95;;
36423;SDS011;22458;45.328;9.514;2022-08-23T06:45:49;4.97;;;4.30;;
36423;SDS011;22458;45.328;9.514;2022-08-23T06:48:15;6.45;;;4.60;;
36423;SDS011;22458;45.328;9.514;2022-08-23T06:50:41;4.85;;;4.18;;
36423;SDS011;22458;45.328;9.514;2022-08-23T06:53:24;5.63;;;3.83;;
36423;SDS011;22458;45.328;9.514;2022-08-23T06:56:09;5.00;;;3.78;;
36423;SDS011;22458;45.328;9.514;2022-08-23T06:58:46;6.55;;;3.55;;
36423;SDS011;22458;45.328;9.514;2022-08-23T07:01:36;5.35;;;3.60;;
36423;SDS011;22458;45.328;9.514;2022-08-23T07:04:21;4.18;;;3.40;;
36423;SDS011;22458;45.328;9.514;2022-08-23T07:07:06;5.75;;;3.67;;
36423;SDS011;22458;45.328;9.514;2022-08-23T07:09:34;4.15;;;3.50;;
36423;SDS011;22458;45.328;9.514;2022-08-23T07:12:00;5.70;;;4.32;;
36423;SDS011;22458;45.328;9.514;2022-08-23T07:14:29;5.13;;;3.97;;
36423;SDS011;22458;45.328;9.514;2022-08-23T07:16:57;4.38;;;3.60;;
36423;SDS011;22458;45.328;9.514;2022-08-23T07:19:26;3.80;;;3.40;;
36423;SDS011;22458;45.328;9.514;2022-08-23T07:21:54;3.72;;;3.10;;
36423;SDS011;22458;45.328;9.514;2022-08-23T07:24:21;5.22;;;3.67;;
36423;SDS011;22458;45.328;9.514;2022-08-23T07:26:49;6.10;;;3.60;;
36423;SDS011;22458;45.328;9.514;2022-08-23T07:29:17;4.03;;;3.25;;
36423;SDS011;22458;45.328;9.514;2022-08-23T07:31:46;4.70;;;2.65;;
36423;SDS011;22458;45.328;9.514;2022-08-23T07:34:14;3.85;;;2.70;;
36423;SDS011;22458;45.328;9.514;2022-08-23T07:36:42;3.50;;;2.90;;
36423;SDS011;22458;45.328;9.514;2022-08-23T07:39:10;3.60;;;2.72;;
36423;SDS011;22458;45.328;9.514;2022-08-23T07:41:37;3.22;;;2.60;;
36423;SDS011;22458;45.328;9.514;2022-08-23T07:44:05;3.50;;;2.67;;
36423;SDS011;22458;45.328;9.514;2022-08-23T07:46:34;4.45;;;2.75;;
36423;SDS011;22458;45.328;9.514;2022-08-23T07:49:02;3.88;;;2.85;;
36423;SDS011;22458;45.328;9.514;2022-08-23T07:51:38;4.00;;;3.00;;
36423;SDS011;22458;45.328;9.514;2022-08-23T07:54:07;3.73;;;2.80;;
36423;SDS011;22458;45.328;9.514;2022-08-23T07:56:42;4.28;;;2.78;;
36423;SDS011;22458;45.328;9.514;2022-08-23T07:59:27;2.97;;;2.60;;
36423;SDS011;22458;45.328;9.514;2022-08-23T08:02:06;4.07;;;3.10;;
36423;SDS011;22458;45.328;9.514;2022-08-23T08:04:33;3.17;;;2.63;;
36423;SDS011;22458;45.328;9.514;2022-08-23T08:06:59;3.90;;;2.78;;
36423;SDS011;22458;45.328;9.514;2022-08-23T08:09:26;3.95;;;3.00;;
36423;SDS011;22458;45.328;9.514;2022-08-23T08:11:52;5.07;;;2.75;;
36423;SDS011;22458;45.328;9.514;2022-08-23T08:14:22;3.65;;;2.40;;
36423;SDS011;22458;45.328;9.514;2022-08-23T08:16:54;3.72;;;2.80;;
36423;SDS011;22458;45.328;9.514;2022-08-23T08:19:57;4.32;;;3.10;;
36423;SDS011;22458;45.328;9.514;2022-08-23T08:22:42;3.50;;;2.92;;
36423;SDS011;22458;45.328;9.514;2022-08-23T08:25:28;2.80;;;2.47;;
36423;SDS011;22458;45.328;9.514;2022-08-23T08:27:57;3.00;;;2.55;;
36423;SDS011;22458;45.328;9.514;2022-08-23T08:30:23;3.58;;;2.58;;
36423;SDS011;22458;45.328;9.514;2022-08-23T08:32:50;3.92;;;2.90;;
36423;SDS011;22458;45.328;9.514;2022-08-23T08:35:16;4.55;;;2.45;;
36423;SDS011;22458;45.328;9.514;2022-08-23T08:37:41;6.22;;;2.72;;
36423;SDS011;22458;45.328;9.514;2022-08-23T08:40:07;2.80;;;2.47;;
36423;SDS011;22458;45.328;9.514;2022-08-23T08:45:15;3.75;;;2.42;;
36423;SDS011;22458;45.328;9.514;2022-08-23T08:47:49;2.55;;;2.10;;
36423;SDS011;22458;45.328;9.514;2022-08-23T08:50:31;2.63;;;2.10;;
36423;SDS011;22458;45.328;9.514;2022-08-23T08:53:04;2.85;;;2.10;;
36423;SDS011;22458;45.328;9.514;2022-08-23T08:56:14;2.55;;;2.10;;
36423;SDS011;22458;45.328;9.514;2022-08-23T09:01:11;2.22;;;1.85;;
36423;SDS011;22458;45.328;9.514;2022-08-23T09:03:41;3.10;;;2.05;;
36423;SDS011;22458;45.328;9.514;2022-08-23T09:14:29;4.15;;;2.20;;
36423;SDS011;22458;45.328;9.514;2022-08-23T09:17:20;4.03;;;2.25;;
36423;SDS011;22458;45.328;9.514;2022-08-23T09:19:55;5.18;;;2.83;;
36423;SDS011;22458;45.328;9.514;2022-08-23T09:22:43;4.40;;;2.63;;
36423;SDS011;22458;45.328;9.514;2022-08-23T09:25:23;4.07;;;2.25;;
36423;SDS011;22458;45.328;9.514;2022-08-23T09:30:54;5.18;;;2.10;;
36423;SDS011;22458;45.328;9.514;2022-08-23T09:33:40;3.28;;;1.48;;
36423;SDS011;22458;45.328;9.514;2022-08-23T09:36:22;3.17;;;2.03;;
36423;SDS011;22458;45.328;9.514;2022-08-23T09:38:57;4.75;;;2.20;;
36423;SDS011;22458;45.328;9.514;2022-08-23T09:44:04;2.80;;;1.73;;
36423;SDS011;22458;45.328;9.514;2022-08-23T09:46:34;3.25;;;1.95;;
36423;SDS011;22458;45.328;9.514;2022-08-23T09:49:37;3.10;;;2.35;;
36423;SDS011;22458;45.328;9.514;2022-08-23T09:55:05;3.63;;;1.50;;
36423;SDS011;22458;45.328;9.514;2022-08-23T09:57:37;4.00;;;1.90;;
36423;SDS011;22458;45.328;9.514;2022-08-23T10:02:51;2.30;;;1.90;;
36423;SDS011;22458;45.328;9.514;2022-08-23T10:05:34;3.42;;;2.00;;
36423;SDS011;22458;45.328;9.514;2022-08-23T10:08:03;2.67;;;2.10;;
36423;SDS011;22458;45.328;9.514;2022-08-23T10:10:37;3.83;;;1.92;;
36423;SDS011;22458;45.328;9.514;2022-08-23T10:13:12;4.05;;;2.05;;
36423;SDS011;22458;45.328;9.514;2022-08-23T10:26:58;4.53;;;1.92;;
36423;SDS011;22458;45.328;9.514;2022-08-23T10:30:19;2.80;;;2.03;;
36423;SDS011;22458;45.328;9.514;2022-08-23T10:33:11;2.10;;;1.50;;
36423;SDS011;22458;45.328;9.514;2022-08-23T10:38:31;2.22;;;1.20;;
36423;SDS011;22458;45.328;9.514;2022-08-23T10:44:18;1.48;;;1.10;;
36423;SDS011;22458;45.328;9.514;2022-08-23T10:49:39;2.15;;;1.48;;
36423;SDS011;22458;45.328;9.514;2022-08-23T10:52:08;2.17;;;1.40;;
36423;SDS011;22458;45.328;9.514;2022-08-23T10:54:44;2.60;;;1.10;;
36423;SDS011;22458;45.328;9.514;2022-08-23T10:57:27;3.38;;;1.33;;
36423;SDS011;22458;45.328;9.514;2022-08-23T11:00:01;2.35;;;1.23;;
36423;SDS011;22458;45.328;9.514;2022-08-23T11:05:28;3.30;;;1.20;;
36423;SDS011;22458;45.328;9.514;2022-08-23T11:15:53;2.53;;;1.60;;
36423;SDS011;22458;45.328;9.514;2022-08-23T11:18:44;4.78;;;1.40;;
36423;SDS011;22458;45.328;9.514;2022-08-23T11:23:53;1.60;;;1.20;;
36423;SDS011;22458;45.328;9.514;2022-08-23T11:31:43;2.15;;;1.40;;
36423;SDS011;22458;45.328;9.514;2022-08-23T11:34:27;2.30;;;1.38;;
36423;SDS011;22458;45.328;9.514;2022-08-23T11:40:03;5.47;;;1.83;;
36423;SDS011;22458;45.328;9.514;2022-08-23T11:45:29;1.98;;;1.15;;
36423;SDS011;22458;45.328;9.514;2022-08-23T11:51:34;2.10;;;1.08;;
36423;SDS011;22458;45.328;9.514;2022-08-23T11:54:13;2.35;;;0.80;;
36423;SDS011;22458;45.328;9.514;2022-08-23T12:05:08;1.30;;;0.82;;
36423;SDS011;22458;45.328;9.514;2022-08-23T12:08:24;3.03;;;1.65;;
36423;SDS011;22458;45.328;9.514;2022-08-23T12:18:54;1.73;;;0.75;;
36423;SDS011;22458;45.328;9.514;2022-08-23T12:21:25;5.75;;;1.17;;
36423;SDS011;22458;45.328;9.514;2022-08-23T12:23:58;4.32;;;0.82;;
36423;SDS011;22458;45.328;9.514;2022-08-23T12:26:38;2.00;;;1.02;;
36423;SDS011;22458;45.328;9.514;2022-08-23T12:32:09;1.00;;;0.80;;
36423;SDS011;22458;45.328;9.514;2022-08-23T12:34:48;1.70;;;0.98;;
36423;SDS011;22458;45.328;9.514;2022-08-23T12:37:49;1.67;;;0.88;;
36423;SDS011;22458;45.328;9.514;2022-08-23T12:40:29;1.10;;;0.95;;
36423;SDS011;22458;45.328;9.514;2022-08-23T12:45:44;2.55;;;1.20;;
36423;SDS011;22458;45.328;9.514;2022-08-23T12:48:14;1.40;;;0.85;;
36423;SDS011;22458;45.328;9.514;2022-08-23T12:50:42;1.92;;;0.73;;
36423;SDS011;22458;45.328;9.514;2022-08-23T12:53:15;2.38;;;0.98;;
36423;SDS011;22458;45.328;9.514;2022-08-23T12:55:50;1.33;;;0.93;;
36423;SDS011;22458;45.328;9.514;2022-08-23T12:58:24;1.92;;;1.20;;
36423;SDS011;22458;45.328;9.514;2022-08-23T13:00:53;1.20;;;0.60;;
36423;SDS011;22458;45.328;9.514;2022-08-23T13:03:31;1.90;;;1.17;;
36423;SDS011;22458;45.328;9.514;2022-08-23T13:06:01;2.00;;;0.80;;
36423;SDS011;22458;45.328;9.514;2022-08-23T13:11:11;1.00;;;0.75;;
36423;SDS011;22458;45.328;9.514;2022-08-23T13:13:39;1.98;;;0.88;;
36423;SDS011;22458;45.328;9.514;2022-08-23T13:19:08;1.55;;;0.90;;
36423;SDS011;22458;45.328;9.514;2022-08-23T13:22:07;1.17;;;0.60;;
36423;SDS011;22458;45.328;9.514;2022-08-23T13:24:42;1.85;;;0.80;;
36423;SDS011;22458;45.328;9.514;2022-08-23T13:27:26;1.42;;;1.02;;
36423;SDS011;22458;45.328;9.514;2022-08-23T13:29:57;2.90;;;0.90;;
36423;SDS011;22458;45.328;9.514;2022-08-23T13:32:34;1.55;;;0.90;;
36423;SDS011;22458;45.328;9.514;2022-08-23T13:37:48;1.48;;;1.15;;
36423;SDS011;22458;45.328;9.514;2022-08-23T13:40:20;1.20;;;0.63;;
36423;SDS011;22458;45.328;9.514;2022-08-23T13:42:56;2.03;;;0.80;;
36423;SDS011;22458;45.328;9.514;2022-08-23T13:45:29;1.05;;;0.75;;
36423;SDS011;22458;45.328;9.514;2022-08-23T13:50:31;0.93;;;0.63;;
36423;SDS011;22458;45.328;9.514;2022-08-23T13:52:58;1.38;;;0.82;;
36423;SDS011;22458;45.328;9.514;2022-08-23T13:55:26;2.08;;;0.88;;
36423;SDS011;22458;45.328;9.514;2022-08-23T14:00:20;1.67;;;1.00;;
36423;SDS011;22458;45.328;9.514;2022-08-23T14:02:46;4.25;;;0.90;;
36423;SDS011;22458;45.328;9.514;2022-08-23T14:05:14;1.40;;;0.80;;
36423;SDS011;22458;45.328;9.514;2022-08-23T14:07:45;2.42;;;1.00;;
36423;SDS011;22458;45.328;9.514;2022-08-23T14:12:39;1.10;;;0.63;;
36423;SDS011;22458;45.328;9.514;2022-08-23T14:15:09;2.10;;;0.90;;
36423;SDS011;22458;45.328;9.514;2022-08-23T14:17:41;1.40;;;0.90;;
36423;SDS011;22458;45.328;9.514;2022-08-23T14:20:10;2.15;;;0.90;;
36423;SDS011;22458;45.328;9.514;2022-08-23T14:22:36;1.95;;;1.17;;
36423;SDS011;22458;45.328;9.514;2022-08-23T14:25:03;1.52;;;0.88;;
36423;SDS011;22458;45.328;9.514;2022-08-23T14:27:30;3.10;;;1.00;;
36423;SDS011;22458;45.328;9.514;2022-08-23T14:29:56;1.85;;;1.00;;
36423;SDS011;22458;45.328;9.514;2022-08-23T14:32:22;3.13;;;1.00;;
36423;SDS011;22458;45.328;9.514;2022-08-23T14:34:49;1.67;;;0.90;;
36423;SDS011;22458;45.328;9.514;2022-08-23T14:37:14;3.28;;;0.80;;
36423;SDS011;22458;45.328;9.514;2022-08-23T14:39:40;2.85;;;0.85;;
36423;SDS011;22458;45.328;9.514;2022-08-23T14:42:06;3.00;;;0.98;;
36423;SDS011;22458;45.328;9.514;2022-08-23T14:44:32;0.98;;;0.45;;
36423;SDS011;22458;45.328;9.514;2022-08-23T14:46:58;1.15;;;0.65;;
36423;SDS011;22458;45.328;9.514;2022-08-23T14:49:24;2.65;;;0.80;;
36423;SDS011;22458;45.328;9.514;2022-08-23T14:51:49;1.15;;;0.70;;
36423;SDS011;22458;45.328;9.514;2022-08-23T14:54:20;1.10;;;0.82;;
36423;SDS011;22458;45.328;9.514;2022-08-23T14:56:47;3.30;;;0.90;;
36423;SDS011;22458;45.328;9.514;2022-08-23T14:59:13;1.65;;;1.10;;
36423;SDS011;22458;45.328;9.514;2022-08-23T15:01:41;1.33;;;0.85;;
36423;SDS011;22458;45.328;9.514;2022-08-23T15:04:08;1.42;;;0.70;;
36423;SDS011;22458;45.328;9.514;2022-08-23T15:06:33;1.08;;;0.68;;
36423;SDS011;22458;45.328;9.514;2022-08-23T15:09:00;2.38;;;0.80;;
36423;SDS011;22458;45.328;9.514;2022-08-23T15:11:26;1.75;;;0.73;;
36423;SDS011;22458;45.328;9.514;2022-08-23T15:13:52;1.75;;;0.85;;
36423;SDS011;22458;45.328;9.514;2022-08-23T15:16:18;3.92;;;1.05;;
36423;SDS011;22458;45.328;9.514;2022-08-23T15:18:47;0.90;;;0.60;;
36423;SDS011;22458;45.328;9.514;2022-08-23T15:21:15;2.90;;;0.70;;
36423;SDS011;22458;45.328;9.514;2022-08-23T15:23:41;1.10;;;0.50;;
36423;SDS011;22458;45.328;9.514;2022-08-23T15:26:08;1.98;;;0.70;;
36423;SDS011;22458;45.328;9.514;2022-08-23T15:28:35;4.50;;;0.90;;
36423;SDS011;22458;45.328;9.514;2022-08-23T15:31:02;1.13;;;0.75;;
36423;SDS011;22458;45.328;9.514;2022-08-23T15:33:27;1.83;;;1.13;;
36423;SDS011;22458;45.328;9.514;2022-08-23T15:35:54;1.05;;;0.80;;
36423;SDS011;22458;45.328;9.514;2022-08-23T15:38:21;1.83;;;0.70;;
36423;SDS011;22458;45.328;9.514;2022-08-23T15:40:49;3.60;;;0.93;;
36423;SDS011;22458;45.328;9.514;2022-08-23T15:43:16;1.20;;;0.80;;
36423;SDS011;22458;45.328;9.514;2022-08-23T15:45:43;2.97;;;0.95;;
36423;SDS011;22458;45.328;9.514;2022-08-23T15:50:48;3.28;;;0.88;;
36423;SDS011;22458;45.328;9.514;2022-08-23T15:53:14;1.80;;;1.05;;
36423;SDS011;22458;45.328;9.514;2022-08-23T15:55:41;1.83;;;0.90;;
36423;SDS011;22458;45.328;9.514;2022-08-23T15:58:11;1.60;;;1.00;;
36423;SDS011;22458;45.328;9.514;2022-08-23T16:00:46;1.38;;;0.70;;
36423;SDS011;22458;45.328;9.514;2022-08-23T16:03:13;1.10;;;0.70;;
36423;SDS011;22458;45.328;9.514;2022-08-23T16:05:41;1.77;;;0.95;;
36423;SDS011;22458;45.328;9.514;2022-08-23T16:08:11;0.77;;;0.55;;
36423;SDS011;22458;45.328;9.514;2022-08-23T16:10:50;1.80;;;0.75;;
36423;SDS011;22458;45.328;9.514;2022-08-23T16:13:17;1.07;;;0.67;;
36423;SDS011;22458;45.328;9.514;2022-08-23T16:15:43;5.10;;;3.55;;
36423;SDS011;22458;45.328;9.514;2022-08-23T16:18:09;2.63;;;2.13;;
36423;SDS011;22458;45.328;9.514;2022-08-23T16:20:35;1.90;;;0.85;;
36423;SDS011;22458;45.328;9.514;2022-08-23T16:23:01;1.67;;;0.80;;
36423;SDS011;22458;45.328;9.514;2022-08-23T16:25:27;2.40;;;0.77;;
36423;SDS011;22458;45.328;9.514;2022-08-23T16:27:53;2.80;;;0.70;;
36423;SDS011;22458;45.328;9.514;2022-08-23T16:30:18;1.60;;;0.80;;
36423;SDS011;22458;45.328;9.514;2022-08-23T16:32:44;0.85;;;0.50;;
36423;SDS011;22458;45.328;9.514;2022-08-23T16:35:10;1.35;;;0.63;;
36423;SDS011;22458;45.328;9.514;2022-08-23T16:37:36;2.38;;;0.70;;
36423;SDS011;22458;45.328;9.514;2022-08-23T16:40:05;3.58;;;0.80;;
36423;SDS011;22458;45.328;9.514;2022-08-23T16:42:32;2.00;;;0.63;;
36423;SDS011;22458;45.328;9.514;2022-08-23T16:44:58;0.80;;;0.60;;
36423;SDS011;22458;45.328;9.514;2022-08-23T16:47:24;2.30;;;0.57;;
36423;SDS011;22458;45.328;9.514;2022-08-23T16:49:50;3.63;;;0.70;;
36423;SDS011;22458;45.328;9.514;2022-08-23T16:52:16;0.82;;;0.60;;
36423;SDS011;22458;45.328;9.514;2022-08-23T16:54:42;1.33;;;0.70;;
36423;SDS011;22458;45.328;9.514;2022-08-23T16:57:08;0.95;;;0.50;;
36423;SDS011;22458;45.328;9.514;2022-08-23T16:59:33;1.13;;;0.60;;
36423;SDS011;22458;45.328;9.514;2022-08-23T17:02:01;1.20;;;0.60;;
36423;SDS011;22458;45.328;9.514;2022-08-23T17:04:28;1.13;;;0.73;;
36423;SDS011;22458;45.328;9.514;2022-08-23T17:06:55;1.33;;;0.77;;
36423;SDS011;22458;45.328;9.514;2022-08-23T17:09:22;1.92;;;0.70;;
36423;SDS011;22458;45.328;9.514;2022-08-23T17:11:49;0.75;;;0.45;;
36423;SDS011;22458;45.328;9.514;2022-08-23T17:14:16;2.42;;;0.70;;
36423;SDS011;22458;45.328;9.514;2022-08-23T17:16:43;3.45;;;0.50;;
36423;SDS011;22458;45.328;9.514;2022-08-23T17:19:09;0.93;;;0.57;;